sensor_id;sensor_type;location;lat;lon;timestamp;pressure;altitude;pressure_sealevel;temperature;humidity
69574;BME280;62840;52.366;5.980;2023-02-13T00:01:33;103744.66;;;7.33;71.91
69574;BME280;62840;52.366;5.980;2023-02-13T00:03:59;103753.50;;;7.32;71.76
69574;BME280;62840;52.366;5.980;2023-02-13T00:06:25;103742.03;;;7.32;72.04
69574;BME280;62840;52.366;5.980;2023-02-13T00:08:53;103732.28;;;7.32;71.89
69574;BME280;62840;52.366;5.980;2023-02-13T00:11:19;103729.63;;;7.32;71.98
69574;BME280;62840;52.366;5.980;2023-02-13T00:13:45;103735.78;;;7.34;71.87
69574;BME280;62840;52.366;5.980;2023-02-13T00:16:11;103735.78;;;7.34;71.89
69574;BME280;62840;52.366;5.980;2023-02-13T00:18:37;103728.66;;;7.37;71.80
69574;BME280;62840;52.366;5.980;2023-02-13T00:21:05;103722.50;;;7.34;71.82
69574;BME280;62840;52.366;5.980;2023-02-13T00:23:35;103717.19;;;7.34;71.79
69574;BME280;62840;52.366;5.980;2023-02-13T00:26:08;103725.16;;;7.34;71.86
69574;BME280;62840;52.366;5.980;2023-02-13T00:28:36;103718.13;;;7.33;71.63
69574;BME280;62840;52.366;5.980;2023-02-13T00:31:04;103718.13;;;7.33;71.98
69574;BME280;62840;52.366;5.980;2023-02-13T00:33:32;103718.13;;;7.33;71.89
69574;BME280;62840;52.366;5.980;2023-02-13T00:36:02;103719.84;;;7.34;71.95
69574;BME280;62840;52.366;5.980;2023-02-13T00:38:30;103716.34;;;7.32;71.91
69574;BME280;62840;52.366;5.980;2023-02-13T00:40:55;103711.88;;;7.34;71.82
69574;BME280;62840;52.366;5.980;2023-02-13T00:43:24;103714.53;;;7.34;71.73
69574;BME280;62840;52.366;5.980;2023-02-13T00:45:50;103718.13;;;7.33;71.84
69574;BME280;62840;52.366;5.980;2023-02-13T00:48:16;103713.75;;;7.31;71.93
69574;BME280;62840;52.366;5.980;2023-02-13T00:50:42;103709.34;;;7.28;71.80
69574;BME280;62840;52.366;5.980;2023-02-13T00:53:07;103709.44;;;7.25;71.97
69574;BME280;62840;52.366;5.980;2023-02-13T00:55:33;103719.16;;;7.26;72.00
69574;BME280;62840;52.366;5.980;2023-02-13T00:57:59;103714.66;;;7.28;71.87
69574;BME280;62840;52.366;5.980;2023-02-13T01:00:27;103716.47;;;7.28;71.88
69574;BME280;62840;52.366;5.980;2023-02-13T01:02:53;103711.19;;;7.26;72.10
69574;BME280;62840;52.366;5.980;2023-02-13T01:05:19;103709.44;;;7.25;71.84
69574;BME280;62840;52.366;5.980;2023-02-13T01:07:45;103714.81;;;7.22;72.01
69574;BME280;62840;52.366;5.980;2023-02-13T01:10:10;103714.00;;;7.19;72.24
69574;BME280;62840;52.366;5.980;2023-02-13T01:12:36;103706.06;;;7.17;71.94
69574;BME280;62840;52.366;5.980;2023-02-13T01:15:02;103699.88;;;7.18;72.03
69574;BME280;62840;52.366;5.980;2023-02-13T01:17:31;103710.50;;;7.18;72.14
69574;BME280;62840;52.366;5.980;2023-02-13T01:19:57;103714.00;;;7.19;72.01
69574;BME280;62840;52.366;5.980;2023-02-13T01:22:23;103707.84;;;7.18;72.05
69574;BME280;62840;52.366;5.980;2023-02-13T01:24:49;103710.50;;;7.17;72.15
69574;BME280;62840;52.366;5.980;2023-02-13T01:27:15;103711.38;;;7.17;72.09
69574;BME280;62840;52.366;5.980;2023-02-13T01:29:40;103715.81;;;7.18;72.09
69574;BME280;62840;52.366;5.980;2023-02-13T01:32:06;103716.63;;;7.20;72.14
69574;BME280;62840;52.366;5.980;2023-02-13T01:34:35;103721.88;;;7.23;72.09
69574;BME280;62840;52.366;5.980;2023-02-13T01:37:00;103720.16;;;7.21;72.14
69574;BME280;62840;52.366;5.980;2023-02-13T01:39:26;103716.63;;;7.20;72.31
69574;BME280;62840;52.366;5.980;2023-02-13T01:41:52;103712.28;;;7.18;72.09
69574;BME280;62840;52.366;5.980;2023-02-13T01:44:45;103713.16;;;7.18;72.26
69574;BME280;62840;52.366;5.980;2023-02-13T01:47:17;103714.03;;;7.17;72.07
69574;BME280;62840;52.366;5.980;2023-02-13T01:49:58;103713.16;;;7.18;72.23
69574;BME280;62840;52.366;5.980;2023-02-13T01:52:30;103720.19;;;7.19;72.01
69574;BME280;62840;52.366;5.980;2023-02-13T01:54:57;103711.38;;;7.17;72.29
69574;BME280;62840;52.366;5.980;2023-02-13T01:57:24;103709.66;;;7.16;72.22
69574;BME280;62840;52.366;5.980;2023-02-13T01:59:58;103714.97;;;7.16;72.20
69574;BME280;62840;52.366;5.980;2023-02-13T02:02:30;103706.06;;;7.17;72.25
69574;BME280;62840;52.366;5.980;2023-02-13T02:05:05;103704.34;;;7.16;72.21
69574;BME280;62840;52.366;5.980;2023-02-13T02:07:33;103708.78;;;7.16;72.16
69574;BME280;62840;52.366;5.980;2023-02-13T02:10:04;103705.25;;;7.15;72.14
69574;BME280;62840;52.366;5.980;2023-02-13T02:12:38;103700.84;;;7.14;72.17
69574;BME280;62840;52.366;5.980;2023-02-13T02:15:08;103700.88;;;7.12;72.21
69574;BME280;62840;52.366;5.980;2023-02-13T02:17:34;103700.91;;;7.11;72.19
69574;BME280;62840;52.366;5.980;2023-02-13T02:20:13;103688.53;;;7.10;72.19
69574;BME280;62840;52.366;5.980;2023-02-13T02:23:13;103695.63;;;7.11;72.00
69574;BME280;62840;52.366;5.980;2023-02-13T02:32:46;103676.25;;;7.06;72.29
69574;BME280;62840;52.366;5.980;2023-02-13T02:35:26;103683.31;;;7.07;72.28
69574;BME280;62840;52.366;5.980;2023-02-13T02:38:07;103678.91;;;7.06;72.44
69574;BME280;62840;52.366;5.980;2023-02-13T02:40:51;103674.50;;;7.05;72.47
69574;BME280;62840;52.366;5.980;2023-02-13T02:43:33;103676.31;;;7.03;72.44
69574;BME280;62840;52.366;5.980;2023-02-13T02:46:15;103667.50;;;7.02;72.44
69574;BME280;62840;52.366;5.980;2023-02-13T02:48:55;103674.50;;;7.05;72.25
69574;BME280;62840;52.366;5.980;2023-02-13T02:51:32;103670.94;;;7.06;72.26
69574;BME280;62840;52.366;5.980;2023-02-13T02:54:10;103670.94;;;7.06;72.40
69574;BME280;62840;52.366;5.980;2023-02-13T02:56:43;103667.41;;;7.07;72.24
69574;BME280;62840;52.366;5.980;2023-02-13T02:59:12;103672.69;;;7.07;72.31
69574;BME280;62840;52.366;5.980;2023-02-13T03:01:43;103672.63;;;7.10;72.21
69574;BME280;62840;52.366;5.980;2023-02-13T03:04:18;103675.25;;;7.11;72.17
69574;BME280;62840;52.366;5.980;2023-02-13T03:06:50;103669.94;;;7.11;72.39
69574;BME280;62840;52.366;5.980;2023-02-13T03:09:23;103674.38;;;7.11;72.30
69574;BME280;62840;52.366;5.980;2023-02-13T03:11:54;103682.34;;;7.11;72.34
69574;BME280;62840;52.366;5.980;2023-02-13T03:14:23;103679.69;;;7.11;72.47
69574;BME280;62840;52.366;5.980;2023-02-13T03:16:51;103674.38;;;7.11;72.62
69574;BME280;62840;52.366;5.980;2023-02-13T03:19:24;103666.38;;;7.12;72.42
69574;BME280;62840;52.366;5.980;2023-02-13T03:22:03;103672.56;;;7.13;72.50
69574;BME280;62840;52.366;5.980;2023-02-13T03:24:41;103675.16;;;7.14;72.35
69574;BME280;62840;52.366;5.980;2023-02-13T03:27:22;103671.63;;;7.16;72.23
69574;BME280;62840;52.366;5.980;2023-02-13T03:30:02;103674.31;;;7.14;72.40
69574;BME280;62840;52.366;5.980;2023-02-13T03:32:44;103674.31;;;7.14;72.42
69574;BME280;62840;52.366;5.980;2023-02-13T03:35:28;103673.47;;;7.12;72.44
69574;BME280;62840;52.366;5.980;2023-02-13T03:38:07;103674.38;;;7.11;72.45
69574;BME280;62840;52.366;5.980;2023-02-13T03:40:42;103679.69;;;7.11;72.45
69574;BME280;62840;52.366;5.980;2023-02-13T03:43:16;103679.69;;;7.11;72.48
69574;BME280;62840;52.366;5.980;2023-02-13T03:45:45;103689.41;;;7.10;72.46
69574;BME280;62840;52.366;5.980;2023-02-13T03:48:15;103685.00;;;7.11;72.47
69574;BME280;62840;52.366;5.980;2023-02-13T03:50:47;103686.81;;;7.09;72.47
69574;BME280;62840;52.366;5.980;2023-02-13T03:53:14;103686.81;;;7.09;72.66
69574;BME280;62840;52.366;5.980;2023-02-13T03:55:44;103683.25;;;7.10;72.67
69574;BME280;62840;52.366;5.980;2023-02-13T03:58:14;103690.31;;;7.11;72.47
69574;BME280;62840;52.366;5.980;2023-02-13T04:00:50;103685.88;;;7.11;72.64
69574;BME280;62840;52.366;5.980;2023-02-13T04:03:22;103677.03;;;7.11;72.62
69574;BME280;62840;52.366;5.980;2023-02-13T04:05:58;103676.13;;;7.12;72.74
69574;BME280;62840;52.366;5.980;2023-02-13T04:08:31;103682.28;;;7.12;72.67
69574;BME280;62840;52.366;5.980;2023-02-13T04:11:02;103674.31;;;7.14;72.63
69574;BME280;62840;52.366;5.980;2023-02-13T04:13:35;103677.88;;;7.13;72.64
69574;BME280;62840;52.366;5.980;2023-02-13T04:16:10;103675.25;;;7.11;72.60
69574;BME280;62840;52.366;5.980;2023-02-13T04:18:42;103673.47;;;7.10;72.58
69574;BME280;62840;52.366;5.980;2023-02-13T04:21:12;103676.13;;;7.10;72.70
69574;BME280;62840;52.366;5.980;2023-02-13T04:23:37;103665.50;;;7.12;72.53
69574;BME280;62840;52.366;5.980;2023-02-13T04:26:06;103668.13;;;7.13;72.58
69574;BME280;62840;52.366;5.980;2023-02-13T04:28:37;103671.66;;;7.14;72.53
69574;BME280;62840;52.366;5.980;2023-02-13T04:31:03;103665.44;;;7.15;72.25
69574;BME280;62840;52.366;5.980;2023-02-13T04:33:29;103667.19;;;7.16;72.30
69574;BME280;62840;52.366;5.980;2023-02-13T04:35:54;103668.06;;;7.17;72.26
69574;BME280;62840;52.366;5.980;2023-02-13T04:38:23;103669.81;;;7.18;72.19
69574;BME280;62840;52.366;5.980;2023-02-13T04:40:49;103668.88;;;7.19;72.18
69574;BME280;62840;52.366;5.980;2023-02-13T04:43:14;103663.56;;;7.20;72.13
69574;BME280;62840;52.366;5.980;2023-02-13T04:45:40;103668.88;;;7.20;72.33
69574;BME280;62840;52.366;5.980;2023-02-13T04:48:06;103663.47;;;7.23;72.11
69574;BME280;62840;52.366;5.980;2023-02-13T04:50:32;103657.28;;;7.24;72.24
69574;BME280;62840;52.366;5.980;2023-02-13T04:52:57;103651.03;;;7.25;72.05
69574;BME280;62840;52.366;5.980;2023-02-13T04:55:27;103654.63;;;7.24;72.16
69574;BME280;62840;52.366;5.980;2023-02-13T04:57:54;103658.16;;;7.23;72.30
69574;BME280;62840;52.366;5.980;2023-02-13T05:00:21;103652.84;;;7.23;72.39
69574;BME280;62840;52.366;5.980;2023-02-13T05:02:49;103649.31;;;7.24;72.33
69574;BME280;62840;52.366;5.980;2023-02-13T05:05:15;103651.03;;;7.25;72.40
69574;BME280;62840;52.366;5.980;2023-02-13T05:07:41;103658.13;;;7.26;72.37
69574;BME280;62840;52.366;5.980;2023-02-13T05:10:08;103652.81;;;7.26;72.43
69574;BME280;62840;52.366;5.980;2023-02-13T05:12:38;103645.66;;;7.28;72.34
69574;BME280;62840;52.366;5.980;2023-02-13T05:15:04;103644.78;;;7.28;72.53
69574;BME280;62840;52.366;5.980;2023-02-13T05:17:31;103650.09;;;7.28;72.35
69574;BME280;62840;52.366;5.980;2023-02-13T05:19:56;103650.97;;;7.28;72.47
69574;BME280;62840;52.366;5.980;2023-02-13T05:22:22;103650.97;;;7.28;72.34
69574;BME280;62840;52.366;5.980;2023-02-13T05:24:48;103650.97;;;7.28;72.52
69574;BME280;62840;52.366;5.980;2023-02-13T05:27:13;103645.66;;;7.28;72.41
69574;BME280;62840;52.366;5.980;2023-02-13T05:29:42;103645.66;;;7.28;72.42
69574;BME280;62840;52.366;5.980;2023-02-13T05:32:08;103650.09;;;7.28;72.51
69574;BME280;62840;52.366;5.980;2023-02-13T05:34:33;103650.97;;;7.28;72.41
69574;BME280;62840;52.366;5.980;2023-02-13T05:36:59;103650.09;;;7.28;72.50
69574;BME280;62840;52.366;5.980;2023-02-13T05:39:25;103650.97;;;7.28;72.63
69574;BME280;62840;52.366;5.980;2023-02-13T05:41:51;103652.72;;;7.29;72.39
69574;BME280;62840;52.366;5.980;2023-02-13T05:44:16;103650.97;;;7.28;72.54
69574;BME280;62840;52.366;5.980;2023-02-13T05:46:45;103645.66;;;7.28;72.47
69574;BME280;62840;52.366;5.980;2023-02-13T05:49:12;103640.34;;;7.28;72.49
69574;BME280;62840;52.366;5.980;2023-02-13T05:51:39;103644.75;;;7.29;72.54
69574;BME280;62840;52.366;5.980;2023-02-13T05:54:05;103650.06;;;7.29;72.50
69574;BME280;62840;52.366;5.980;2023-02-13T05:56:31;103642.09;;;7.29;72.42
69574;BME280;62840;52.366;5.980;2023-02-13T05:58:56;103638.53;;;7.30;72.70
69574;BME280;62840;52.366;5.980;2023-02-13T06:01:23;103643.84;;;7.30;72.63
69574;BME280;62840;52.366;5.980;2023-02-13T06:03:51;103643.00;;;7.28;72.62
69574;BME280;62840;52.366;5.980;2023-02-13T06:06:17;103647.50;;;7.26;72.66
69574;BME280;62840;52.366;5.980;2023-02-13T06:08:43;103647.50;;;7.26;72.77
69574;BME280;62840;52.366;5.980;2023-02-13T06:11:09;103649.31;;;7.24;72.74
69574;BME280;62840;52.366;5.980;2023-02-13T06:13:35;103650.19;;;7.23;72.73
69574;BME280;62840;52.366;5.980;2023-02-13T06:16:01;103651.03;;;7.25;72.70
69574;BME280;62840;52.366;5.980;2023-02-13T06:18:26;103652.81;;;7.26;72.54
69574;BME280;62840;52.366;5.980;2023-02-13T06:20:55;103651.91;;;7.26;72.66
69574;BME280;62840;52.366;5.980;2023-02-13T06:23:20;103653.69;;;7.25;72.78
69574;BME280;62840;52.366;5.980;2023-02-13T06:25:46;103651.03;;;7.25;72.78
69574;BME280;62840;52.366;5.980;2023-02-13T06:28:12;103654.63;;;7.24;72.49
69574;BME280;62840;52.366;5.980;2023-02-13T06:30:38;103648.41;;;7.24;72.84
69574;BME280;62840;52.366;5.980;2023-02-13T06:33:03;103658.16;;;7.23;72.76
69574;BME280;62840;52.366;5.980;2023-02-13T06:35:29;103651.13;;;7.22;72.72
69574;BME280;62840;52.366;5.980;2023-02-13T06:37:57;103656.38;;;7.24;72.69
69574;BME280;62840;52.366;5.980;2023-02-13T06:40:23;103658.16;;;7.23;72.73
69574;BME280;62840;52.366;5.980;2023-02-13T06:42:49;103659.94;;;7.24;72.64
69574;BME280;62840;52.366;5.980;2023-02-13T06:45:15;103665.25;;;7.24;72.83
69574;BME280;62840;52.366;5.980;2023-02-13T06:47:42;103665.25;;;7.24;72.68
69574;BME280;62840;52.366;5.980;2023-02-13T06:50:10;103668.78;;;7.23;72.75
69574;BME280;62840;52.366;5.980;2023-02-13T06:52:38;103676.75;;;7.23;72.79
69574;BME280;62840;52.366;5.980;2023-02-13T06:55:06;103677.66;;;7.22;72.92
69574;BME280;62840;52.366;5.980;2023-02-13T06:57:32;103676.78;;;7.22;72.74
69574;BME280;62840;52.366;5.980;2023-02-13T06:59:58;103679.47;;;7.20;72.86
69574;BME280;62840;52.366;5.980;2023-02-13T07:02:24;103685.66;;;7.21;72.77
69574;BME280;62840;52.366;5.980;2023-02-13T07:04:49;103684.78;;;7.20;72.79
69574;BME280;62840;52.366;5.980;2023-02-13T07:07:15;103677.72;;;7.19;72.69
69574;BME280;62840;52.366;5.980;2023-02-13T07:09:41;103687.47;;;7.19;72.71
69574;BME280;62840;52.366;5.980;2023-02-13T07:12:09;103694.53;;;7.20;72.89
69574;BME280;62840;52.366;5.980;2023-02-13T07:14:35;103685.75;;;7.18;72.72
69574;BME280;62840;52.366;5.980;2023-02-13T07:17:01;103693.63;;;7.19;72.78
69574;BME280;62840;52.366;5.980;2023-02-13T07:19:27;103693.63;;;7.19;72.73
69574;BME280;62840;52.366;5.980;2023-02-13T07:21:52;103696.28;;;7.19;72.82
69574;BME280;62840;52.366;5.980;2023-02-13T07:24:18;103700.72;;;7.20;72.85
69574;BME280;62840;52.366;5.980;2023-02-13T07:26:44;103703.31;;;7.22;72.77
69574;BME280;62840;52.366;5.980;2023-02-13T07:29:12;103696.19;;;7.24;72.63
69574;BME280;62840;52.366;5.980;2023-02-13T07:31:38;103705.06;;;7.24;72.82
69574;BME280;62840;52.366;5.980;2023-02-13T07:34:04;103697.09;;;7.24;72.70
69574;BME280;62840;52.366;5.980;2023-02-13T07:36:30;103705.91;;;7.26;72.80
69574;BME280;62840;52.366;5.980;2023-02-13T07:38:56;103705.91;;;7.26;72.84
69574;BME280;62840;52.366;5.980;2023-02-13T07:41:22;103707.63;;;7.27;72.92
69574;BME280;62840;52.366;5.980;2023-02-13T07:43:47;103712.00;;;7.28;72.73
69574;BME280;62840;52.366;5.980;2023-02-13T07:46:16;103705.81;;;7.29;72.82
69574;BME280;62840;52.366;5.980;2023-02-13T07:48:41;103707.53;;;7.30;72.73
69574;BME280;62840;52.366;5.980;2023-02-13T07:51:08;103704.00;;;7.31;72.77
69574;BME280;62840;52.366;5.980;2023-02-13T07:53:34;103707.50;;;7.33;72.86
69574;BME280;62840;52.366;5.980;2023-02-13T07:56:04;103712.72;;;7.37;72.65
69574;BME280;62840;52.366;5.980;2023-02-13T07:58:30;103711.84;;;7.38;72.77
69574;BME280;62840;52.366;5.980;2023-02-13T08:00:56;103719.75;;;7.41;72.61
69574;BME280;62840;52.366;5.980;2023-02-13T08:03:24;103718.81;;;7.42;72.67
69574;BME280;62840;52.366;5.980;2023-02-13T08:05:50;103717.94;;;7.43;72.61
69574;BME280;62840;52.366;5.980;2023-02-13T08:08:16;103718.81;;;7.43;72.53
69574;BME280;62840;52.366;5.980;2023-02-13T08:10:41;103717.94;;;7.43;72.72
69574;BME280;62840;52.366;5.980;2023-02-13T08:13:08;103728.47;;;7.46;72.61
69574;BME280;62840;52.366;5.980;2023-02-13T08:15:36;103723.16;;;7.46;72.76
69574;BME280;62840;52.366;5.980;2023-02-13T08:18:02;103726.66;;;7.48;72.67
69574;BME280;62840;52.366;5.980;2023-02-13T08:20:30;103717.81;;;7.49;72.54
69574;BME280;62840;52.366;5.980;2023-02-13T08:23:01;103719.44;;;7.53;72.58
69574;BME280;62840;52.366;5.980;2023-02-13T08:25:27;103713.28;;;7.52;72.64
69574;BME280;62840;52.366;5.980;2023-02-13T08:27:53;103721.13;;;7.57;72.92
69574;BME280;62840;52.366;5.980;2023-02-13T08:30:19;103715.81;;;7.57;72.84
69574;BME280;62840;52.366;5.980;2023-02-13T08:32:45;103712.19;;;7.61;72.76
69574;BME280;62840;52.366;5.980;2023-02-13T08:35:11;103720.06;;;7.64;72.90
69574;BME280;62840;52.366;5.980;2023-02-13T08:37:39;103716.53;;;7.65;72.65
69574;BME280;62840;52.366;5.980;2023-02-13T08:40:06;103710.22;;;7.69;72.72
69574;BME280;62840;52.366;5.980;2023-02-13T08:42:33;103719.84;;;7.73;72.68
69574;BME280;62840;52.366;5.980;2023-02-13T08:44:58;103720.69;;;7.75;72.70
69574;BME280;62840;52.366;5.980;2023-02-13T08:47:24;103719.75;;;7.78;72.57
69574;BME280;62840;52.366;5.980;2023-02-13T08:49:50;103724.13;;;7.81;72.48
69574;BME280;62840;52.366;5.980;2023-02-13T08:52:16;103722.31;;;7.83;72.38
69574;BME280;62840;52.366;5.980;2023-02-13T08:54:44;103715.13;;;7.85;72.47
69574;BME280;62840;52.366;5.980;2023-02-13T08:57:10;103715.09;;;7.88;72.51
69574;BME280;62840;52.366;5.980;2023-02-13T08:59:35;103715.00;;;7.91;72.49
69574;BME280;62840;52.366;5.980;2023-02-13T09:02:01;103720.25;;;7.94;72.46
69574;BME280;62840;52.366;5.980;2023-02-13T09:04:27;103716.56;;;7.98;72.33
69574;BME280;62840;52.366;5.980;2023-02-13T09:06:52;103712.94;;;8.02;72.38
69574;BME280;62840;52.366;5.980;2023-02-13T09:09:18;103715.47;;;8.07;72.35
69574;BME280;62840;52.366;5.980;2023-02-13T09:11:47;103725.97;;;8.11;72.06
69574;BME280;62840;52.366;5.980;2023-02-13T09:14:13;103725.00;;;8.15;72.18
69574;BME280;62840;52.366;5.980;2023-02-13T09:16:38;103726.75;;;8.16;72.12
69574;BME280;62840;52.366;5.980;2023-02-13T09:19:04;103726.66;;;8.20;72.11
69574;BME280;62840;52.366;5.980;2023-02-13T09:21:30;103722.16;;;8.23;72.09
69574;BME280;62840;52.366;5.980;2023-02-13T09:23:56;103723.78;;;8.27;71.93
69574;BME280;62840;52.366;5.980;2023-02-13T09:26:21;103730.78;;;8.31;71.93
69574;BME280;62840;52.366;5.980;2023-02-13T09:28:50;103728.00;;;8.36;71.87
69574;BME280;62840;52.366;5.980;2023-02-13T09:31:18;103733.25;;;8.39;71.76
69574;BME280;62840;52.366;5.980;2023-02-13T09:33:46;103732.31;;;8.40;71.81
69574;BME280;62840;52.366;5.980;2023-02-13T09:36:14;103730.50;;;8.42;71.89
69574;BME280;62840;52.366;5.980;2023-02-13T09:38:42;103727.75;;;8.45;71.64
69574;BME280;62840;52.366;5.980;2023-02-13T09:41:11;103722.34;;;8.48;71.64
69574;BME280;62840;52.366;5.980;2023-02-13T09:43:43;103724.91;;;8.51;71.46
69574;BME280;62840;52.366;5.980;2023-02-13T09:46:19;103738.13;;;8.54;71.59
69574;BME280;62840;52.366;5.980;2023-02-13T09:48:52;103728.38;;;8.55;71.57
69574;BME280;62840;52.366;5.980;2023-02-13T09:51:23;103726.56;;;8.57;71.39
69574;BME280;62840;52.366;5.980;2023-02-13T09:53:53;103725.59;;;8.59;71.41
69574;BME280;62840;52.366;5.980;2023-02-13T09:56:36;103725.50;;;8.63;71.33
69574;BME280;62840;52.366;5.980;2023-02-13T09:59:15;103726.31;;;8.65;71.40
69574;BME280;62840;52.366;5.980;2023-02-13T10:01:59;103721.84;;;8.67;71.28
69574;BME280;62840;52.366;5.980;2023-02-13T10:04:41;103723.50;;;8.71;71.18
69574;BME280;62840;52.366;5.980;2023-02-13T10:07:22;103729.69;;;8.71;71.13
69574;BME280;62840;52.366;5.980;2023-02-13T10:10:01;103722.56;;;8.72;70.99
69574;BME280;62840;52.366;5.980;2023-02-13T10:12:45;103728.72;;;8.74;71.11
69574;BME280;62840;52.366;5.980;2023-02-13T10:15:23;103725.97;;;8.77;71.16
69574;BME280;62840;52.366;5.980;2023-02-13T10:18:02;103732.13;;;8.79;70.89
69574;BME280;62840;52.366;5.980;2023-02-13T10:20:34;103728.56;;;8.80;71.09
69574;BME280;62840;52.366;5.980;2023-02-13T10:23:14;103727.59;;;8.83;71.08
69574;BME280;62840;52.366;5.980;2023-02-13T10:25:48;103723.97;;;8.85;71.09
69574;BME280;62840;52.366;5.980;2023-02-13T10:28:27;103731.84;;;8.88;70.93
69574;BME280;62840;52.366;5.980;2023-02-13T10:31:03;103733.50;;;8.92;70.91
69574;BME280;62840;52.366;5.980;2023-02-13T10:33:39;103729.84;;;8.96;70.82
69574;BME280;62840;52.366;5.980;2023-02-13T10:36:16;103723.56;;;8.99;70.55
69574;BME280;62840;52.366;5.980;2023-02-13T10:38:55;103724.34;;;9.03;70.64
69574;BME280;62840;52.366;5.980;2023-02-13T10:41:33;103722.53;;;9.05;70.61
69574;BME280;62840;52.366;5.980;2023-02-13T10:44:18;103718.91;;;9.06;70.55
69574;BME280;62840;52.366;5.980;2023-02-13T10:47:02;103720.69;;;9.07;70.29
69574;BME280;62840;52.366;5.980;2023-02-13T10:49:50;103724.25;;;9.06;70.20
69574;BME280;62840;52.366;5.980;2023-02-13T10:52:35;103711.88;;;9.05;70.20
69574;BME280;62840;52.366;5.980;2023-02-13T10:55:18;103713.53;;;9.09;70.38
69574;BME280;62840;52.366;5.980;2023-02-13T10:58:05;103722.31;;;9.11;70.01
69574;BME280;62840;52.366;5.980;2023-02-13T11:00:41;103709.81;;;9.13;69.82
69574;BME280;62840;52.366;5.980;2023-02-13T11:03:17;103704.44;;;9.16;69.88
69574;BME280;62840;52.366;5.980;2023-02-13T11:05:47;103706.16;;;9.17;69.75
69574;BME280;62840;52.366;5.980;2023-02-13T11:08:19;103702.59;;;9.18;69.60
69574;BME280;62840;52.366;5.980;2023-02-13T11:10:46;103691.84;;;9.21;69.83
69574;BME280;62840;52.366;5.980;2023-02-13T11:13:17;103693.50;;;9.25;69.74
69574;BME280;62840;52.366;5.980;2023-02-13T11:15:56;103691.66;;;9.27;69.66
69574;BME280;62840;52.366;5.980;2023-02-13T11:18:26;103688.06;;;9.28;69.66
69574;BME280;62840;52.366;5.980;2023-02-13T11:21:04;103679.19;;;9.29;69.32
69574;BME280;62840;52.366;5.980;2023-02-13T11:23:43;103680.81;;;9.33;69.42
69574;BME280;62840;52.366;5.980;2023-02-13T11:26:11;103680.75;;;9.36;69.31
69574;BME280;62840;52.366;5.980;2023-02-13T11:28:47;103685.94;;;9.39;69.44
69574;BME280;62840;52.366;5.980;2023-02-13T11:31:22;103674.44;;;9.39;69.17
69574;BME280;62840;52.366;5.980;2023-02-13T11:33:50;103671.81;;;9.37;69.25
69574;BME280;62840;52.366;5.980;2023-02-13T11:36:26;103678.06;;;9.36;69.22
69574;BME280;62840;52.366;5.980;2023-02-13T11:38:58;103671.81;;;9.37;69.10
69574;BME280;62840;52.366;5.980;2023-02-13T11:41:28;103673.56;;;9.38;69.15
69574;BME280;62840;52.366;5.980;2023-02-13T11:44:01;103670.78;;;9.41;69.14
69574;BME280;62840;52.366;5.980;2023-02-13T11:46:41;103663.63;;;9.44;69.11
69574;BME280;62840;52.366;5.980;2023-02-13T11:49:16;103665.31;;;9.46;69.10
69574;BME280;62840;52.366;5.980;2023-02-13T11:51:49;103670.56;;;9.49;69.17
69574;BME280;62840;52.366;5.980;2023-02-13T11:54:38;103661.53;;;9.53;68.97
69574;BME280;62840;52.366;5.980;2023-02-13T11:57:18;103664.16;;;9.55;68.76
69574;BME280;62840;52.366;5.980;2023-02-13T11:59:49;103669.44;;;9.56;68.85
69574;BME280;62840;52.366;5.980;2023-02-13T12:02:19;103664.03;;;9.58;68.87
69574;BME280;62840;52.366;5.980;2023-02-13T12:04:47;103655.13;;;9.59;68.79
69574;BME280;62840;52.366;5.980;2023-02-13T12:07:20;103655.03;;;9.62;68.77
69574;BME280;62840;52.366;5.980;2023-02-13T12:09:53;103658.50;;;9.64;68.66
69574;BME280;62840;52.366;5.980;2023-02-13T12:12:28;103653.19;;;9.64;68.58
69574;BME280;62840;52.366;5.980;2023-02-13T12:15:01;103653.19;;;9.64;68.44
69574;BME280;62840;52.366;5.980;2023-02-13T12:17:41;103640.78;;;9.63;68.43
69574;BME280;62840;52.366;5.980;2023-02-13T12:20:12;103638.97;;;9.65;68.47
69574;BME280;62840;52.366;5.980;2023-02-13T12:22:50;103641.50;;;9.68;68.42
69574;BME280;62840;52.366;5.980;2023-02-13T12:25:40;103642.28;;;9.72;68.41
69574;BME280;62840;52.366;5.980;2023-02-13T12:28:23;103635.16;;;9.72;68.20
69574;BME280;62840;52.366;5.980;2023-02-13T12:31:16;103627.19;;;9.71;68.06
69574;BME280;62840;52.366;5.980;2023-02-13T12:37:08;103626.22;;;9.73;68.23
69574;BME280;62840;52.366;5.980;2023-02-13T12:39:51;103622.66;;;9.74;68.20
69574;BME280;62840;52.366;5.980;2023-02-13T12:42:37;103618.19;;;9.75;68.07
69574;BME280;62840;52.366;5.980;2023-02-13T12:45:24;103610.16;;;9.76;68.27
69574;BME280;62840;52.366;5.980;2023-02-13T12:48:12;103606.53;;;9.77;68.05
69574;BME280;62840;52.366;5.980;2023-02-13T12:50:58;103618.84;;;9.81;67.93
69574;BME280;62840;52.366;5.980;2023-02-13T12:53:55;103607.31;;;9.81;67.95
69574;BME280;62840;52.366;5.980;2023-02-13T12:56:53;103607.97;;;9.88;67.99
69574;BME280;62840;52.366;5.980;2023-02-13T12:59:33;103611.44;;;9.90;68.13
69574;BME280;62840;52.366;5.980;2023-02-13T13:02:44;103613.06;;;9.94;67.85
69574;BME280;62840;52.366;5.980;2023-02-13T13:05:24;103607.72;;;9.94;67.88
69574;BME280;62840;52.366;5.980;2023-02-13T13:08:12;103602.41;;;9.94;67.86
69574;BME280;62840;52.366;5.980;2023-02-13T13:11:06;103602.41;;;9.94;67.79
69574;BME280;62840;52.366;5.980;2023-02-13T13:13:57;103593.50;;;9.95;67.84
69574;BME280;62840;52.366;5.980;2023-02-13T13:16:35;103593.50;;;9.95;67.85
69574;BME280;62840;52.366;5.980;2023-02-13T13:19:14;103593.59;;;9.92;67.82
69574;BME280;62840;52.366;5.980;2023-02-13T13:21:56;103591.09;;;9.87;67.72
69574;BME280;62840;52.366;5.980;2023-02-13T13:24:36;103590.34;;;9.83;67.65
69574;BME280;62840;52.366;5.980;2023-02-13T13:27:17;103583.38;;;9.79;67.74
69574;BME280;62840;52.366;5.980;2023-02-13T13:29:53;103582.56;;;9.77;67.83
69574;BME280;62840;52.366;5.980;2023-02-13T13:32:23;103578.16;;;9.76;67.88